sensor_id;sensor_type;location;lat;lon;timestamp;temperature;humidity
23271;DHT22;11804;51.118;17.058;2023-06-14T00:02:04;12.60;99.90
23271;DHT22;11804;51.118;17.058;2023-06-14T00:04:34;12.70;99.90
23271;DHT22;11804;51.118;17.058;2023-06-14T00:07:02;12.80;99.90
23271;DHT22;11804;51.118;17.058;2023-06-14T00:09:29;12.80;99.90
23271;DHT22;11804;51.118;17.058;2023-06-14T00:11:57;12.80;99.90
23271;DHT22;11804;51.118;17.058;2023-06-14T00:14:24;12.80;99.90
23271;DHT22;11804;51.118;17.058;2023-06-14T00:16:52;12.70;99.90
23271;DHT22;11804;51.118;17.058;2023-06-14T00:19:21;12.60;99.90
23271;DHT22;11804;51.118;17.058;2023-06-14T00:21:50;12.50;99.90
23271;DHT22;11804;51.118;17.058;2023-06-14T00:24:19;12.50;99.90
23271;DHT22;11804;51.118;17.058;2023-06-14T00:26:47;12.50;99.90
23271;DHT22;11804;51.118;17.058;2023-06-14T00:29:15;12.50;99.90
23271;DHT22;11804;51.118;17.058;2023-06-14T00:31:46;12.50;99.90
23271;DHT22;11804;51.118;17.058;2023-06-14T00:34:13;12.40;99.90
23271;DHT22;11804;51.118;17.058;2023-06-14T00:36:41;12.20;99.90
23271;DHT22;11804;51.118;17.058;2023-06-14T00:39:09;12.30;99.90
23271;DHT22;11804;51.118;17.058;2023-06-14T00:41:38;12.30;99.90
23271;DHT22;11804;51.118;17.058;2023-06-14T00:44:06;12.40;99.90
23271;DHT22;11804;51.118;17.058;2023-06-14T00:46:34;12.50;99.90
23271;DHT22;11804;51.118;17.058;2023-06-14T00:49:02;12.40;99.90
23271;DHT22;11804;51.118;17.058;2023-06-14T00:51:29;12.50;99.90
23271;DHT22;11804;51.118;17.058;2023-06-14T00:53:57;12.50;99.90
23271;DHT22;11804;51.118;17.058;2023-06-14T00:56:25;12.50;99.90
23271;DHT22;11804;51.118;17.058;2023-06-14T00:58:55;12.40;99.90
23271;DHT22;11804;51.118;17.058;2023-06-14T01:01:25;12.40;99.90
23271;DHT22;11804;51.118;17.058;2023-06-14T01:03:52;12.30;99.90
23271;DHT22;11804;51.118;17.058;2023-06-14T01:09:30;12.10;99.90
23271;DHT22;11804;51.118;17.058;2023-06-14T01:11:59;12.10;99.90
23271;DHT22;11804;51.118;17.058;2023-06-14T01:14:28;12.00;99.90
23271;DHT22;11804;51.118;17.058;2023-06-14T01:16:57;12.00;99.90
23271;DHT22;11804;51.118;17.058;2023-06-14T01:19:27;12.00;99.90
23271;DHT22;11804;51.118;17.058;2023-06-14T01:21:56;12.00;99.90
23271;DHT22;11804;51.118;17.058;2023-06-14T01:24:24;12.00;99.90
23271;DHT22;11804;51.118;17.058;2023-06-14T01:26:55;12.00;99.90
23271;DHT22;11804;51.118;17.058;2023-06-14T01:29:25;12.00;99.90
23271;DHT22;11804;51.118;17.058;2023-06-14T01:31:55;12.00;99.90
23271;DHT22;11804;51.118;17.058;2023-06-14T01:34:23;11.80;99.90
23271;DHT22;11804;51.118;17.058;2023-06-14T01:36:51;11.90;99.90
23271;DHT22;11804;51.118;17.058;2023-06-14T01:39:20;11.90;99.90
23271;DHT22;11804;51.118;17.058;2023-06-14T01:41:48;11.90;99.90
23271;DHT22;11804;51.118;17.058;2023-06-14T01:44:20;12.00;99.90
23271;DHT22;11804;51.118;17.058;2023-06-14T01:46:47;12.00;99.90
23271;DHT22;11804;51.118;17.058;2023-06-14T01:49:15;12.00;99.90
23271;DHT22;11804;51.118;17.058;2023-06-14T01:51:48;12.00;99.90
23271;DHT22;11804;51.118;17.058;2023-06-14T01:54:16;12.00;99.90
23271;DHT22;11804;51.118;17.058;2023-06-14T01:56:44;11.90;99.90
23271;DHT22;11804;51.118;17.058;2023-06-14T01:59:11;12.00;99.90
23271;DHT22;11804;51.118;17.058;2023-06-14T02:01:39;12.00;99.90
23271;DHT22;11804;51.118;17.058;2023-06-14T02:04:07;12.00;99.90
23271;DHT22;11804;51.118;17.058;2023-06-14T02:06:34;11.90;99.90
23271;DHT22;11804;51.118;17.058;2023-06-14T02:09:02;11.90;99.90
23271;DHT22;11804;51.118;17.058;2023-06-14T02:11:30;11.90;99.90
23271;DHT22;11804;51.118;17.058;2023-06-14T02:13:58;11.80;99.90
23271;DHT22;11804;51.118;17.058;2023-06-14T02:16:26;11.90;99.90
23271;DHT22;11804;51.118;17.058;2023-06-14T02:18:56;11.70;99.90
23271;DHT22;11804;51.118;17.058;2023-06-14T02:21:23;11.70;99.90
23271;DHT22;11804;51.118;17.058;2023-06-14T02:23:51;11.60;99.90
23271;DHT22;11804;51.118;17.058;2023-06-14T02:26:18;11.50;99.90
23271;DHT22;11804;51.118;17.058;2023-06-14T02:28:47;11.50;99.90
23271;DHT22;11804;51.118;17.058;2023-06-14T02:31:15;11.80;99.90
23271;DHT22;11804;51.118;17.058;2023-06-14T02:33:42;11.90;99.90
23271;DHT22;11804;51.118;17.058;2023-06-14T02:36:10;12.10;99.90
23271;DHT22;11804;51.118;17.058;2023-06-14T02:38:38;12.10;99.90
23271;DHT22;11804;51.118;17.058;2023-06-14T02:41:05;12.10;99.90
23271;DHT22;11804;51.118;17.058;2023-06-14T02:43:33;12.20;99.90
23271;DHT22;11804;51.118;17.058;2023-06-14T02:46:01;12.20;99.90
23271;DHT22;11804;51.118;17.058;2023-06-14T02:48:29;12.10;99.90
23271;DHT22;11804;51.118;17.058;2023-06-14T02:50:57;12.10;99.90
23271;DHT22;11804;51.118;17.058;2023-06-14T02:53:25;12.10;99.90
23271;DHT22;11804;51.118;17.058;2023-06-14T02:55:52;12.00;99.90
23271;DHT22;11804;51.118;17.058;2023-06-14T02:58:21;12.00;99.90
23271;DHT22;11804;51.118;17.058;2023-06-14T03:00:51;12.10;99.90
23271;DHT22;11804;51.118;17.058;2023-06-14T03:03:20;12.20;99.90
23271;DHT22;11804;51.118;17.058;2023-06-14T03:05:48;12.30;99.90
23271;DHT22;11804;51.118;17.058;2023-06-14T03:08:18;12.40;99.90
23271;DHT22;11804;51.118;17.058;2023-06-14T03:10:50;12.50;99.90
23271;DHT22;11804;51.118;17.058;2023-06-14T03:13:18;12.60;99.90
23271;DHT22;11804;51.118;17.058;2023-06-14T03:15:49;12.50;99.90
23271;DHT22;11804;51.118;17.058;2023-06-14T03:18:17;12.20;99.90
23271;DHT22;11804;51.118;17.058;2023-06-14T03:20:45;11.80;99.90
23271;DHT22;11804;51.118;17.058;2023-06-14T03:23:14;11.70;99.90
23271;DHT22;11804;51.118;17.058;2023-06-14T03:25:42;11.80;99.90
23271;DHT22;11804;51.118;17.058;2023-06-14T03:28:11;11.90;99.90
23271;DHT22;11804;51.118;17.058;2023-06-14T03:30:39;12.10;99.90
23271;DHT22;11804;51.118;17.058;2023-06-14T03:33:06;12.30;99.90
23271;DHT22;11804;51.118;17.058;2023-06-14T03:35:35;12.40;99.90
23271;DHT22;11804;51.118;17.058;2023-06-14T03:38:05;12.40;99.90
23271;DHT22;11804;51.118;17.058;2023-06-14T03:40:33;12.70;99.90
23271;DHT22;11804;51.118;17.058;2023-06-14T03:43:02;12.80;99.90
23271;DHT22;11804;51.118;17.058;2023-06-14T03:45:31;13.00;99.90
23271;DHT22;11804;51.118;17.058;2023-06-14T03:47:59;13.00;99.90
23271;DHT22;11804;51.118;17.058;2023-06-14T03:50:27;13.10;99.90
23271;DHT22;11804;51.118;17.058;2023-06-14T03:52:54;13.20;99.90
23271;DHT22;11804;51.118;17.058;2023-06-14T03:55:22;13.40;99.90
23271;DHT22;11804;51.118;17.058;2023-06-14T03:57:52;13.70;99.90
23271;DHT22;11804;51.118;17.058;2023-06-14T04:00:19;13.90;99.90
23271;DHT22;11804;51.118;17.058;2023-06-14T04:02:47;13.90;99.90
23271;DHT22;11804;51.118;17.058;2023-06-14T04:05:18;13.80;99.90
23271;DHT22;11804;51.118;17.058;2023-06-14T04:07:46;13.70;99.90
23271;DHT22;11804;51.118;17.058;2023-06-14T04:10:18;13.50;99.90
23271;DHT22;11804;51.118;17.058;2023-06-14T04:12:46;13.60;99.90
23271;DHT22;11804;51.118;17.058;2023-06-14T04:15:17;13.70;99.90
23271;DHT22;11804;51.118;17.058;2023-06-14T04:17:45;13.90;99.90
23271;DHT22;11804;51.118;17.058;2023-06-14T04:20:12;14.60;99.90
23271;DHT22;11804;51.118;17.058;2023-06-14T04:22:40;15.00;99.90
23271;DHT22;11804;51.118;17.058;2023-06-14T04:25:09;15.80;99.90
23271;DHT22;11804;51.118;17.058;2023-06-14T04:27:38;16.20;99.90
23271;DHT22;11804;51.118;17.058;2023-06-14T04:30:07;16.30;99.90
23271;DHT22;11804;51.118;17.058;2023-06-14T04:32:35;16.10;99.90
23271;DHT22;11804;51.118;17.058;2023-06-14T04:35:08;15.80;99.90
23271;DHT22;11804;51.118;17.058;2023-06-14T04:37:37;15.70;99.90
23271;DHT22;11804;51.118;17.058;2023-06-14T04:40:09;15.50;99.90
23271;DHT22;11804;51.118;17.058;2023-06-14T04:42:40;15.30;99.90
23271;DHT22;11804;51.118;17.058;2023-06-14T04:45:07;15.20;99.90
23271;DHT22;11804;51.118;17.058;2023-06-14T04:47:38;15.00;99.90
23271;DHT22;11804;51.118;17.058;2023-06-14T04:50:08;14.80;99.90
23271;DHT22;11804;51.118;17.058;2023-06-14T04:52:37;14.70;99.90
23271;DHT22;11804;51.118;17.058;2023-06-14T04:55:04;14.50;99.90
23271;DHT22;11804;51.118;17.058;2023-06-14T04:57:33;14.30;99.90
23271;DHT22;11804;51.118;17.058;2023-06-14T05:00:01;14.10;99.90
23271;DHT22;11804;51.118;17.058;2023-06-14T05:02:31;14.20;99.90
23271;DHT22;11804;51.118;17.058;2023-06-14T05:04:58;14.20;99.90
23271;DHT22;11804;51.118;17.058;2023-06-14T05:07:28;14.40;99.90
23271;DHT22;11804;51.118;17.058;2023-06-14T05:09:55;14.50;99.90
23271;DHT22;11804;51.118;17.058;2023-06-14T05:12:24;14.60;99.90
23271;DHT22;11804;51.118;17.058;2023-06-14T05:14:51;14.50;99.90
23271;DHT22;11804;51.118;17.058;2023-06-14T05:17:19;14.30;99.90
23271;DHT22;11804;51.118;17.058;2023-06-14T05:19:47;14.30;99.90
23271;DHT22;11804;51.118;17.058;2023-06-14T05:22:15;14.40;99.90
23271;DHT22;11804;51.118;17.058;2023-06-14T05:24:42;14.40;99.90
23271;DHT22;11804;51.118;17.058;2023-06-14T05:27:11;14.50;99.90
23271;DHT22;11804;51.118;17.058;2023-06-14T05:29:39;14.80;99.90
23271;DHT22;11804;51.118;17.058;2023-06-14T05:32:08;15.00;99.90
23271;DHT22;11804;51.118;17.058;2023-06-14T05:34:36;15.30;99.90
23271;DHT22;11804;51.118;17.058;2023-06-14T05:37:05;15.40;99.90
23271;DHT22;11804;51.118;17.058;2023-06-14T05:39:33;15.40;99.90
23271;DHT22;11804;51.118;17.058;2023-06-14T05:42:00;15.40;99.90
23271;DHT22;11804;51.118;17.058;2023-06-14T05:44:29;15.40;99.90
23271;DHT22;11804;51.118;17.058;2023-06-14T05:46:57;15.40;99.90
23271;DHT22;11804;51.118;17.058;2023-06-14T05:49:25;15.50;99.90
23271;DHT22;11804;51.118;17.058;2023-06-14T05:51:52;15.60;99.90
23271;DHT22;11804;51.118;17.058;2023-06-14T05:54:20;15.70;99.90
23271;DHT22;11804;51.118;17.058;2023-06-14T05:56:47;15.70;99.90
23271;DHT22;11804;51.118;17.058;2023-06-14T05:59:16;15.70;99.90
23271;DHT22;11804;51.118;17.058;2023-06-14T06:01:44;15.60;99.90
23271;DHT22;11804;51.118;17.058;2023-06-14T06:04:13;15.60;99.90
23271;DHT22;11804;51.118;17.058;2023-06-14T06:06:40;15.60;99.90
23271;DHT22;11804;51.118;17.058;2023-06-14T06:09:08;15.40;99.90
23271;DHT22;11804;51.118;17.058;2023-06-14T06:11:36;15.40;99.90
23271;DHT22;11804;51.118;17.058;2023-06-14T06:14:03;15.70;99.90
23271;DHT22;11804;51.118;17.058;2023-06-14T06:16:31;16.10;99.90
23271;DHT22;11804;51.118;17.058;2023-06-14T06:18:58;16.40;99.90
23271;DHT22;11804;51.118;17.058;2023-06-14T06:21:26;16.80;99.90
23271;DHT22;11804;51.118;17.058;2023-06-14T06:23:54;17.20;99.90
23271;DHT22;11804;51.118;17.058;2023-06-14T06:26:22;18.00;99.90
23271;DHT22;11804;51.118;17.058;2023-06-14T06:28:50;18.60;99.90
23271;DHT22;11804;51.118;17.058;2023-06-14T06:31:17;18.80;99.90
23271;DHT22;11804;51.118;17.058;2023-06-14T06:33:45;18.50;99.90
23271;DHT22;11804;51.118;17.058;2023-06-14T06:36:13;18.10;99.90
23271;DHT22;11804;51.118;17.058;2023-06-14T06:38:43;18.00;99.90
23271;DHT22;11804;51.118;17.058;2023-06-14T06:41:10;17.90;99.90
23271;DHT22;11804;51.118;17.058;2023-06-14T06:43:38;17.90;99.90
23271;DHT22;11804;51.118;17.058;2023-06-14T06:46:06;17.80;99.90
23271;DHT22;11804;51.118;17.058;2023-06-14T06:48:33;17.70;99.90
23271;DHT22;11804;51.118;17.058;2023-06-14T06:51:02;17.60;99.90
23271;DHT22;11804;51.118;17.058;2023-06-14T06:53:32;17.50;99.90
23271;DHT22;11804;51.118;17.058;2023-06-14T06:55:59;17.00;99.90
23271;DHT22;11804;51.118;17.058;2023-06-14T06:58:27;16.70;99.90
23271;DHT22;11804;51.118;17.058;2023-06-14T07:00:55;16.20;99.90
23271;DHT22;11804;51.118;17.058;2023-06-14T07:03:23;15.80;99.90
23271;DHT22;11804;51.118;17.058;2023-06-14T07:05:50;16.00;99.90
23271;DHT22;11804;51.118;17.058;2023-06-14T07:08:19;16.60;99.90
23271;DHT22;11804;51.118;17.058;2023-06-14T07:10:47;17.30;99.90
23271;DHT22;11804;51.118;17.058;2023-06-14T07:13:14;17.70;99.90
23271;DHT22;11804;51.118;17.058;2023-06-14T07:15:42;18.00;99.90
23271;DHT22;11804;51.118;17.058;2023-06-14T07:18:10;18.10;99.90
23271;DHT22;11804;51.118;17.058;2023-06-14T07:20:38;18.10;99.90
23271;DHT22;11804;51.118;17.058;2023-06-14T07:23:09;17.80;99.90
23271;DHT22;11804;51.118;17.058;2023-06-14T07:25:37;19.00;99.90
23271;DHT22;11804;51.118;17.058;2023-06-14T07:28:05;21.20;97.30
23271;DHT22;11804;51.118;17.058;2023-06-14T07:30:33;22.70;86.40
23271;DHT22;11804;51.118;17.058;2023-06-14T07:33:01;24.00;77.90
23271;DHT22;11804;51.118;17.058;2023-06-14T07:35:28;24.30;72.40
23271;DHT22;11804;51.118;17.058;2023-06-14T07:37:56;25.10;65.40
23271;DHT22;11804;51.118;17.058;2023-06-14T07:40:23;25.50;64.00
23271;DHT22;11804;51.118;17.058;2023-06-14T07:42:51;25.50;60.90
23271;DHT22;11804;51.118;17.058;2023-06-14T07:45:20;24.30;62.60
23271;DHT22;11804;51.118;17.058;2023-06-14T07:47:48;23.90;66.10
23271;DHT22;11804;51.118;17.058;2023-06-14T07:50:16;23.80;67.10
23271;DHT22;11804;51.118;17.058;2023-06-14T07:52:44;23.50;69.20
23271;DHT22;11804;51.118;17.058;2023-06-14T07:55:13;23.60;68.80
23271;DHT22;11804;51.118;17.058;2023-06-14T07:57:43;24.20;66.10
23271;DHT22;11804;51.118;17.058;2023-06-14T08:00:11;24.50;65.60
23271;DHT22;11804;51.118;17.058;2023-06-14T08:02:45;23.50;67.00
23271;DHT22;11804;51.118;17.058;2023-06-14T08:05:14;22.60;70.10
23271;DHT22;11804;51.118;17.058;2023-06-14T08:07:45;20.20;82.70
23271;DHT22;11804;51.118;17.058;2023-06-14T08:10:12;19.70;90.20
23271;DHT22;11804;51.118;17.058;2023-06-14T08:12:40;20.90;90.90
23271;DHT22;11804;51.118;17.058;2023-06-14T08:15:12;23.10;79.20
23271;DHT22;11804;51.118;17.058;2023-06-14T08:17:40;23.90;70.70
23271;DHT22;11804;51.118;17.058;2023-06-14T08:20:09;23.80;66.90
23271;DHT22;11804;51.118;17.058;2023-06-14T08:22:37;23.10;69.50
23271;DHT22;11804;51.118;17.058;2023-06-14T08:25:09;22.60;71.10
23271;DHT22;11804;51.118;17.058;2023-06-14T08:27:38;22.10;73.10
23271;DHT22;11804;51.118;17.058;2023-06-14T08:30:09;21.70;75.30
23271;DHT22;11804;51.118;17.058;2023-06-14T08:32:36;21.30;76.90
23271;DHT22;11804;51.118;17.058;2023-06-14T08:35:04;21.00;78.90
23271;DHT22;11804;51.118;17.058;2023-06-14T08:37:37;20.60;80.10
23271;DHT22;11804;51.118;17.058;2023-06-14T08:40:03;20.30;83.90
23271;DHT22;11804;51.118;17.058;2023-06-14T08:42:32;19.90;85.90
23271;DHT22;11804;51.118;17.058;2023-06-14T08:45:03;19.30;90.00
23271;DHT22;11804;51.118;17.058;2023-06-14T08:47:30;19.20;91.80
23271;DHT22;11804;51.118;17.058;2023-06-14T08:50:05;19.60;91.70
23271;DHT22;11804;51.118;17.058;2023-06-14T08:52:38;20.00;90.70
23271;DHT22;11804;51.118;17.058;2023-06-14T08:55:11;20.30;89.50
23271;DHT22;11804;51.118;17.058;2023-06-14T08:57:39;20.50;87.50
23271;DHT22;11804;51.118;17.058;2023-06-14T09:00:10;20.50;86.70
23271;DHT22;11804;51.118;17.058;2023-06-14T09:02:40;20.40;88.00
23271;DHT22;11804;51.118;17.058;2023-06-14T09:05:15;20.80;87.00
23271;DHT22;11804;51.118;17.058;2023-06-14T09:07:44;21.30;83.40
23271;DHT22;11804;51.118;17.058;2023-06-14T09:10:15;21.90;77.30
23271;DHT22;11804;51.118;17.058;2023-06-14T09:12:43;22.10;75.20
23271;DHT22;11804;51.118;17.058;2023-06-14T09:15:11;21.90;76.50
23271;DHT22;11804;51.118;17.058;2023-06-14T09:17:41;21.80;76.20
23271;DHT22;11804;51.118;17.058;2023-06-14T09:20:10;21.50;77.50
23271;DHT22;11804;51.118;17.058;2023-06-14T09:22:39;21.50;85.00
23271;DHT22;11804;51.118;17.058;2023-06-14T09:25:08;21.50;81.20
23271;DHT22;11804;51.118;17.058;2023-06-14T09:27:35;21.40;86.60
23271;DHT22;11804;51.118;17.058;2023-06-14T09:30:07;21.00;88.60
23271;DHT22;11804;51.118;17.058;2023-06-14T09:32:39;20.40;89.60
23271;DHT22;11804;51.118;17.058;2023-06-14T09:35:08;19.50;90.70
23271;DHT22;11804;51.118;17.058;2023-06-14T09:37:36;19.10;94.90
23271;DHT22;11804;51.118;17.058;2023-06-14T09:40:05;18.80;97.70
23271;DHT22;11804;51.118;17.058;2023-06-14T09:42:34;18.60;99.90
23271;DHT22;11804;51.118;17.058;2023-06-14T09:45:03;18.40;99.90
23271;DHT22;11804;51.118;17.058;2023-06-14T09:47:32;18.40;99.90
23271;DHT22;11804;51.118;17.058;2023-06-14T09:49:59;18.50;99.90
23271;DHT22;11804;51.118;17.058;2023-06-14T09:52:28;18.50;99.90
23271;DHT22;11804;51.118;17.058;2023-06-14T09:54:59;18.20;99.90
23271;DHT22;11804;51.118;17.058;2023-06-14T09:57:27;18.10;99.90
23271;DHT22;11804;51.118;17.058;2023-06-14T09:59:58;17.90;99.90
23271;DHT22;11804;51.118;17.058;2023-06-14T10:02:29;18.30;99.90
23271;DHT22;11804;51.118;17.058;2023-06-14T10:05:07;18.90;99.90
23271;DHT22;11804;51.118;17.058;2023-06-14T10:07:54;19.50;99.90
23271;DHT22;11804;51.118;17.058;2023-06-14T10:10:22;20.40;96.90
23271;DHT22;11804;51.118;17.058;2023-06-14T10:12:49;19.80;94.60
23271;DHT22;11804;51.118;17.058;2023-06-14T10:15:32;20.80;92.00
23271;DHT22;11804;51.118;17.058;2023-06-14T10:18:04;22.10;84.80
23271;DHT22;11804;51.118;17.058;2023-06-14T10:23:33;23.00;72.40
23271;DHT22;11804;51.118;17.058;2023-06-14T10:26:02;23.10;69.90
23271;DHT22;11804;51.118;17.058;2023-06-14T10:28:29;22.70;69.40
23271;DHT22;11804;51.118;17.058;2023-06-14T10:31:06;22.20;72.70
23271;DHT22;11804;51.118;17.058;2023-06-14T10:33:48;21.90;74.40
23271;DHT22;11804;51.118;17.058;2023-06-14T10:36:29;21.90;73.20
23271;DHT22;11804;51.118;17.058;2023-06-14T10:41:29;20.00;75.20
23271;DHT22;11804;51.118;17.058;2023-06-14T10:46:54;20.50;77.10
23271;DHT22;11804;51.118;17.058;2023-06-14T10:49:41;20.10;80.60
23271;DHT22;11804;51.118;17.058;2023-06-14T10:52:13;20.20;82.30
23271;DHT22;11804;51.118;17.058;2023-06-14T10:55:09;20.50;79.20
23271;DHT22;11804;51.118;17.058;2023-06-14T10:57:41;20.50;79.80
23271;DHT22;11804;51.118;17.058;2023-06-14T11:00:12;20.40;78.40
23271;DHT22;11804;51.118;17.058;2023-06-14T11:05:23;20.20;79.40
23271;DHT22;11804;51.118;17.058;2023-06-14T11:10:59;20.40;80.80
23271;DHT22;11804;51.118;17.058;2023-06-14T11:13:26;20.40;80.10
23271;DHT22;11804;51.118;17.058;2023-06-14T11:15:55;20.50;78.00
23271;DHT22;11804;51.118;17.058;2023-06-14T11:18:24;20.10;79.40
23271;DHT22;11804;51.118;17.058;2023-06-14T11:20:54;19.40;83.00
23271;DHT22;11804;51.118;17.058;2023-06-14T11:23:22;19.40;82.10
23271;DHT22;11804;51.118;17.058;2023-06-14T11:25:51;19.40;84.30
23271;DHT22;11804;51.118;17.058;2023-06-14T11:28:19;19.30;85.00
23271;DHT22;11804;51.118;17.058;2023-06-14T11:31:02;19.40;85.00
23271;DHT22;11804;51.118;17.058;2023-06-14T11:33:30;19.60;84.90
23271;DHT22;11804;51.118;17.058;2023-06-14T11:35:58;19.90;82.20
23271;DHT22;11804;51.118;17.058;2023-06-14T11:38:26;19.50;83.00
23271;DHT22;11804;51.118;17.058;2023-06-14T11:40:58;19.70;84.70
23271;DHT22;11804;51.118;17.058;2023-06-14T11:43:23;20.30;81.20
23271;DHT22;11804;51.118;17.058;2023-06-14T11:45:53;20.30;78.70
23271;DHT22;11804;51.118;17.058;2023-06-14T11:48:23;19.70;80.20
23271;DHT22;11804;51.118;17.058;2023-06-14T11:50:53;19.30;81.80
23271;DHT22;11804;51.118;17.058;2023-06-14T11:53:21;19.50;81.90
23271;DHT22;11804;51.118;17.058;2023-06-14T11:55:53;19.60;80.50
23271;DHT22;11804;51.118;17.058;2023-06-14T11:58:18;19.70;82.10
23271;DHT22;11804;51.118;17.058;2023-06-14T12:00:50;19.80;81.80
23271;DHT22;11804;51.118;17.058;2023-06-14T12:03:23;20.30;80.20
23271;DHT22;11804;51.118;17.058;2023-06-14T12:06:06;20.70;77.10
23271;DHT22;11804;51.118;17.058;2023-06-14T12:08:36;20.80;75.90
23271;DHT22;11804;51.118;17.058;2023-06-14T12:11:12;20.20;77.80
23271;DHT22;11804;51.118;17.058;2023-06-14T12:13:40;19.60;81.40
23271;DHT22;11804;51.118;17.058;2023-06-14T12:16:09;19.20;86.30
23271;DHT22;11804;51.118;17.058;2023-06-14T12:18:39;19.20;86.40
23271;DHT22;11804;51.118;17.058;2023-06-14T12:21:08;19.20;86.40
23271;DHT22;11804;51.118;17.058;2023-06-14T12:23:48;19.10;89.80
23271;DHT22;11804;51.118;17.058;2023-06-14T12:26:17;19.10;91.20
23271;DHT22;11804;51.118;17.058;2023-06-14T12:28:46;19.00;92.30
23271;DHT22;11804;51.118;17.058;2023-06-14T12:31:15;19.10;93.10
23271;DHT22;11804;51.118;17.058;2023-06-14T12:33:46;19.10;94.00
23271;DHT22;11804;51.118;17.058;2023-06-14T12:36:15;19.00;95.60
23271;DHT22;11804;51.118;17.058;2023-06-14T12:38:43;18.90;98.80
23271;DHT22;11804;51.118;17.058;2023-06-14T12:41:14;19.10;99.90
23271;DHT22;11804;51.118;17.058;2023-06-14T12:43:44;19.10;99.90
23271;DHT22;11804;51.118;17.058;2023-06-14T12:46:11;19.10;99.90
23271;DHT22;11804;51.118;17.058;2023-06-14T12:48:39;19.20;99.90
23271;DHT22;11804;51.118;17.058;2023-06-14T12:51:08;19.50;99.90
23271;DHT22;11804;51.118;17.058;2023-06-14T12:53:37;19.70;99.90
23271;DHT22;11804;51.118;17.058;2023-06-14T12:56:05;20.00;99.90
23271;DHT22;11804;51.118;17.058;2023-06-14T12:58:32;20.00;98.60
23271;DHT22;11804;51.118;17.058;2023-06-14T13:01:01;20.20;98.40
23271;DHT22;11804;51.118;17.058;2023-06-14T13:03:29;20.10;98.80
23271;DHT22;11804;51.118;17.058;2023-06-14T13:05:57;20.00;99.90
23271;DHT22;11804;51.118;17.058;2023-06-14T13:08:24;19.70;99.90
23271;DHT22;11804;51.118;17.058;2023-06-14T13:10:52;19.60;99.90
23271;DHT22;11804;51.118;17.058;2023-06-14T13:13:19;19.70;99.90
23271;DHT22;11804;51.118;17.058;2023-06-14T13:15:47;19.90;99.90
23271;DHT22;11804;51.118;17.058;2023-06-14T13:18:16;19.90;99.90
23271;DHT22;11804;51.118;17.058;2023-06-14T13:20:46;19.60;99.90
23271;DHT22;11804;51.118;17.058;2023-06-14T13:23:15;19.30;99.90
23271;DHT22;11804;51.118;17.058;2023-06-14T13:25:43;19.00;99.90
23271;DHT22;11804;51.118;17.058;2023-06-14T13:28:11;18.90;99.90
23271;DHT22;11804;51.118;17.058;2023-06-14T13:30:38;19.00;99.90
23271;DHT22;11804;51.118;17.058;2023-06-14T13:33:06;19.10;99.90
23271;DHT22;11804;51.118;17.058;2023-06-14T13:35:35;19.20;99.70
23271;DHT22;11804;51.118;17.058;2023-06-14T13:38:03;19.30;98.30
23271;DHT22;11804;51.118;17.058;2023-06-14T13:40:30;19.60;97.70
23271;DHT22;11804;51.118;17.058;2023-06-14T13:42:58;19.70;96.00
23271;DHT22;11804;51.118;17.058;2023-06-14T13:45:26;19.90;95.60
23271;DHT22;11804;51.118;17.058;2023-06-14T13:47:54;20.20;94.10
23271;DHT22;11804;51.118;17.058;2023-06-14T13:50:25;20.40;92.80
23271;DHT22;11804;51.118;17.058;2023-06-14T13:52:52;20.40;92.60
23271;DHT22;11804;51.118;17.058;2023-06-14T13:55:20;20.70;90.70
23271;DHT22;11804;51.118;17.058;2023-06-14T13:57:47;20.70;90.10
23271;DHT22;11804;51.118;17.058;2023-06-14T14:00:16;20.90;86.90
23271;DHT22;11804;51.118;17.058;2023-06-14T14:02:44;20.90;84.50
23271;DHT22;11804;51.118;17.058;2023-06-14T14:05:11;20.40;88.00
23271;DHT22;11804;51.118;17.058;2023-06-14T14:07:40;20.30;90.70
23271;DHT22;11804;51.118;17.058;2023-06-14T14:10:09;20.00;92.50
23271;DHT22;11804;51.118;17.058;2023-06-14T14:12:39;19.80;95.80
23271;DHT22;11804;51.118;17.058;2023-06-14T14:15:08;19.80;97.60
23271;DHT22;11804;51.118;17.058;2023-06-14T14:17:37;19.70;91.90
23271;DHT22;11804;51.118;17.058;2023-06-14T14:20:06;19.60;93.10
23271;DHT22;11804;51.118;17.058;2023-06-14T14:22:34;19.60;91.80
23271;DHT22;11804;51.118;17.058;2023-06-14T14:25:01;19.50;91.30
23271;DHT22;11804;51.118;17.058;2023-06-14T14:27:29;19.40;92.20
23271;DHT22;11804;51.118;17.058;2023-06-14T14:29:57;18.90;92.20
23271;DHT22;11804;51.118;17.058;2023-06-14T14:32:24;18.70;93.40
23271;DHT22;11804;51.118;17.058;2023-06-14T14:34:53;18.60;93.50
23271;DHT22;11804;51.118;17.058;2023-06-14T14:37:21;18.50;94.70
23271;DHT22;11804;51.118;17.058;2023-06-14T14:39:49;18.40;96.10
23271;DHT22;11804;51.118;17.058;2023-06-14T14:42:16;18.30;95.70
23271;DHT22;11804;51.118;17.058;2023-06-14T14:44:45;18.10;98.10
23271;DHT22;11804;51.118;17.058;2023-06-14T14:47:15;17.90;99.80
23271;DHT22;11804;51.118;17.058;2023-06-14T14:49:43;17.80;99.90
23271;DHT22;11804;51.118;17.058;2023-06-14T14:52:10;17.60;99.90
23271;DHT22;11804;51.118;17.058;2023-06-14T14:54:39;17.70;99.90
23271;DHT22;11804;51.118;17.058;2023-06-14T14:57:07;17.60;99.90
23271;DHT22;11804;51.118;17.058;2023-06-14T14:59:36;17.50;99.90
23271;DHT22;11804;51.118;17.058;2023-06-14T15:02:04;17.70;99.90
23271;DHT22;11804;51.118;17.058;2023-06-14T15:04:33;18.00;99.90
23271;DHT22;11804;51.118;17.058;2023-06-14T15:07:00;18.00;99.90
23271;DHT22;11804;51.118;17.058;2023-06-14T15:09:28;18.20;99.90
23271;DHT22;11804;51.118;17.058;2023-06-14T15:11:56;18.30;99.90
23271;DHT22;11804;51.118;17.058;2023-06-14T15:14:23;18.30;99.90
23271;DHT22;11804;51.118;17.058;2023-06-14T15:16:53;18.20;99.90
23271;DHT22;11804;51.118;17.058;2023-06-14T15:19:21;18.20;99.90
23271;DHT22;11804;51.118;17.058;2023-06-14T15:21:48;18.10;99.90
23271;DHT22;11804;51.118;17.058;2023-06-14T15:24:17;18.10;99.90
23271;DHT22;11804;51.118;17.058;2023-06-14T15:26:49;18.30;99.90
23271;DHT22;11804;51.118;17.058;2023-06-14T15:29:17;17.90;99.90
23271;DHT22;11804;51.118;17.058;2023-06-14T15:31:44;18.00;99.90
23271;DHT22;11804;51.118;17.058;2023-06-14T15:34:12;18.00;99.90
23271;DHT22;11804;51.118;17.058;2023-06-14T15:36:40;18.00;99.90
23271;DHT22;11804;51.118;17.058;2023-06-14T15:39:08;18.00;99.90
23271;DHT22;11804;51.118;17.058;2023-06-14T15:41:35;17.90;99.90
23271;DHT22;11804;51.118;17.058;2023-06-14T15:44:03;17.90;99.90